Satori — WDC4937 — position and weather

sailwx.info

Track history (hours):
 
Tides and Currents Weather Stations Pressure Air Temp Water Temp Dewpoint Dewpoint Depression Visibility Wind Speed Wind Dir Waves Ship Positions

Satori

Owner: Wozny, Geoffrey A, Stamford, CT. More information available from US FCC via Universal Licensing System and Coast Guard Vessel Documentation Center.

Last reported at 2015-Jul-28 19:33 UTC. Time now 2015-Jul-29 02:42 UTC.
Position N 41°04' W 072°17'.

Length 13 m.

Type: Sailing vessel. MMSI: 367033160.

Date/timePositionNaut miles runAvg speedWind from/ knotsBaromVisibWave heightAir tempDewpointWater temp
2015-Jul-28 19:33N 41°04' W 072°17'1 1.1
2015-Jul-28 18:33N 41°04' W 072°16'1 1.3
2015-Jul-28 17:33N 41°05' W 072°14'3 3.1
2015-Jul-28 16:33N 41°02' W 072°16'2 1.9
2015-Jul-28 15:32N 41°00' W 072°17'0 0.0
2015-Jul-28 14:32N 41°00' W 072°17'13 0.3
2015-Jul-26 15:16N 41°12' W 072°23'4 5.6
2015-Jul-26 14:33N 41°15' W 072°27'2 1.8
2015-Jul-26 13:32N 41°16' W 072°28'0 0.0
2015-Jul-25 21:16N 41°16' W 072°28'1 1.8
2015-Jul-25 20:33N 41°15' W 072°29'34 5.5
2015-Jul-25 14:22N 41°05' W 073°13'6 7.3
2015-Jul-25 13:33N 41°03' W 073°20'  
Track history (hours):
 
Tides and Currents Weather Stations Pressure Air Temp Water Temp Dewpoint Dewpoint Depression Visibility Wind Speed Wind Dir Waves Ship Positions

Satori

Owner: Wozny, Geoffrey A, Stamford, CT. More information available from US FCC via Universal Licensing System and Coast Guard Vessel Documentation Center.

Last reported at 2015-Jul-28 19:33 UTC. Time now 2015-Jul-29 02:42 UTC.
Position N 41°04' W 072°17'.

Length 13 m.

Type: Sailing vessel. MMSI: 367033160.

Date/timePositionNaut miles runAvg speedWind from/ knotsBaromVisibWave heightAir tempDewpointWater temp
2015-Jul-28 19:33N 41°04' W 072°17'1 1.1
2015-Jul-28 18:33N 41°04' W 072°16'1 1.3
2015-Jul-28 17:33N 41°05' W 072°14'3 3.1
2015-Jul-28 16:33N 41°02' W 072°16'2 1.9
2015-Jul-28 15:32N 41°00' W 072°17'0 0.0
2015-Jul-28 14:32N 41°00' W 072°17'13 0.3
2015-Jul-26 15:16N 41°12' W 072°23'4 5.6
2015-Jul-26 14:33N 41°15' W 072°27'2 1.8
2015-Jul-26 13:32N 41°16' W 072°28'0 0.0
2015-Jul-25 21:16N 41°16' W 072°28'1 1.8
2015-Jul-25 20:33N 41°15' W 072°29'34 5.5
2015-Jul-25 14:22N 41°05' W 073°13'6 7.3
2015-Jul-25 13:33N 41°03' W 073°20'  

Dump ship's entire track history